Ocean Bluff, MA

3:36 PM EDT on September 26, 2016 (GMT -0400)
Marshfield

Weather History for KGHG - December, 2014

Change the Weather History Date:

Thursday, December 18, 2014

  Actual Average (KPYM) Record (KPYM)
Temperature  
Mean Temperature 38 °F -  
Max Temperature 44 °F 41 °F 60 °F (1973)
Min Temperature 33 °F 21 °F 1 °F (1988)
Degree Days  
Heating Degree Days 26    
Moisture  
Dew Point 32 °F    
Average Humidity 74    
Maximum Humidity 93    
Minimum Humidity 61    
Precipitation  
Precipitation 0.01 in - - ()
Sea Level Pressure  
Sea Level Pressure 29.79 in    
Wind  
Wind Speed 8 mph (West)    
Max Wind Speed 15 mph    
Max Gust Speed 30 mph    
Visibility 10 miles    
Events      
Averages and records for this station are not official NWS values.
T = Trace of Precipitation, MM = Missing Value Source: NWS Daily Summary

Daily Weather History Graph

Daily Weather History Graph

Search for Another Location

Airport or City:

Trip Planner

Search our weather history database for the weather conditions in past years. The results will help you decide how hot, cold, wet, or windy it might be!

Date:

Astronomy

Dec. 18, 2014 Rise Set
Actual Time 7:05 AM EST 4:12 PM EST
Civil Twilight 6:34 AM EST 4:44 PM EST
Nautical Twilight 5:58 AM EST 5:19 PM EST
Astronomical Twilight 5:24 AM EST 5:53 PM EST
Moon 3:13 AM EST (12/18) 1:53 PM EST (12/18)
Length of Visible Light 10h 10m
Length of Day
9h 06m
Waning Crescent, 13% of the Moon is Illuminated
Dec 18
Waning Crescent
Dec 21
New
Dec 28
First Quarter
Jan 4
Full
Jan 13
Last Quarter

Hourly Weather History & Observations

Time (EST) Temp. Windchill Dew Point Humidity Pressure Visibility Wind Dir Wind Speed Gust Speed Precip Events Conditions
12:15 AM 42.8 °F 38.6 °F 33.8 °F 70% 29.72 in 10.0 mi West 6.9 mph 16.1 mph N/A   Overcast
12:35 AM 42.8 °F 37.5 °F 33.8 °F 70% 29.73 in 10.0 mi West 9.2 mph - N/A   Overcast
12:55 AM 41.0 °F 35.2 °F 33.8 °F 76% 29.73 in 10.0 mi West 9.2 mph - N/A   Mostly Cloudy
1:15 AM 41.0 °F 37.1 °F 33.8 °F 76% 29.73 in 10.0 mi West 5.8 mph - N/A   Mostly Cloudy
1:35 AM 39.2 °F 35.0 °F 33.8 °F 81% 29.73 in 10.0 mi West 5.8 mph - N/A   Mostly Cloudy
1:55 AM 39.2 °F 33.0 °F 33.8 °F 81% 29.74 in 10.0 mi West 9.2 mph - N/A   Overcast
2:15 AM 39.2 °F 33.6 °F 32.0 °F 75% 29.74 in 10.0 mi West 8.1 mph - N/A   Overcast
2:35 AM 39.2 °F 33.0 °F 32.0 °F 75% 29.74 in 10.0 mi West 9.2 mph - N/A   Overcast
2:55 AM 39.2 °F 34.2 °F 32.0 °F 75% 29.74 in 10.0 mi WSW 6.9 mph - N/A   Overcast
3:15 AM 39.2 °F 33.6 °F 32.0 °F 75% 29.73 in 10.0 mi West 8.1 mph - N/A   Overcast
3:35 AM 39.2 °F 33.6 °F 32.0 °F 75% 29.73 in 10.0 mi West 8.1 mph - N/A   Overcast
3:55 AM 39.2 °F 33.0 °F 32.0 °F 75% 29.72 in 10.0 mi West 9.2 mph - N/A   Overcast
4:15 AM 39.2 °F 34.2 °F 32.0 °F 75% 29.72 in 10.0 mi West 6.9 mph - N/A   Overcast
4:35 AM 39.2 °F 33.6 °F 32.0 °F 75% 29.72 in 10.0 mi West 8.1 mph - N/A   Overcast
4:55 AM 39.2 °F 33.6 °F 32.0 °F 75% 29.73 in 10.0 mi West 8.1 mph - N/A   Overcast
5:15 AM 39.2 °F 33.0 °F 32.0 °F 75% 29.74 in 10.0 mi West 9.2 mph 17.3 mph N/A   Overcast
5:35 AM 39.2 °F 33.6 °F 32.0 °F 75% 29.74 in 10.0 mi West 8.1 mph 17.3 mph N/A   Overcast
5:55 AM 39.2 °F 32.5 °F 32.0 °F 75% 29.74 in 10.0 mi WNW 10.4 mph - N/A   Mostly Cloudy
6:15 AM 37.4 °F 31.4 °F 32.0 °F 81% 29.75 in 10.0 mi West 8.1 mph 20.7 mph N/A   Overcast
6:35 AM 37.4 °F 31.4 °F 33.8 °F 87% 29.76 in 9.0 mi West 8.1 mph 17.3 mph N/A   Mostly Cloudy
6:55 AM 35.6 °F 28.6 °F 33.8 °F 93% 29.76 in 7.0 mi West 9.2 mph 17.3 mph N/A   Overcast
7:15 AM 35.6 °F 27.5 °F 33.8 °F 93% 29.76 in 9.0 mi West 11.5 mph 17.3 mph N/A   Mostly Cloudy
7:35 AM 35.6 °F 29.2 °F 33.8 °F 93% 29.77 in 7.0 mi West 8.1 mph 18.4 mph N/A   Mostly Cloudy
7:55 AM 35.6 °F 28.6 °F 33.8 °F 93% 29.77 in 8.0 mi West 9.2 mph 17.3 mph N/A   Mostly Cloudy
8:15 AM 35.6 °F 28.0 °F 33.8 °F 93% 29.78 in 5.0 mi West 10.4 mph 18.4 mph 0.01 in   Overcast
8:35 AM 35.6 °F 28.0 °F 33.8 °F 93% 29.78 in 8.0 mi West 10.4 mph 17.3 mph 0.01 in   Mostly Cloudy
8:55 AM 35.6 °F 28.6 °F 33.8 °F 93% 29.79 in 8.0 mi West 9.2 mph 19.6 mph 0.01 in   Scattered Clouds
9:15 AM 37.4 °F 29.8 °F 35.6 °F 93% 29.79 in 9.0 mi West 11.5 mph 23.0 mph N/A   Scattered Clouds
9:35 AM 37.4 °F 30.3 °F 35.6 °F 93% 29.79 in 10.0 mi West 10.4 mph - N/A   Partly Cloudy
9:55 AM 39.2 °F 32.0 °F 33.8 °F 81% 29.79 in 10.0 mi West 11.5 mph 25.3 mph N/A   Partly Cloudy
10:15 AM 39.2 °F 32.5 °F 33.8 °F 81% 29.79 in 10.0 mi West 10.4 mph 23.0 mph N/A   Mostly Cloudy
10:35 AM 39.2 °F 32.0 °F 32.0 °F 75% 29.78 in 10.0 mi West 11.5 mph 21.9 mph N/A   Scattered Clouds
10:55 AM 42.8 °F 35.8 °F 32.0 °F 66% 29.78 in 10.0 mi West 13.8 mph 24.2 mph N/A   Clear
11:15 AM 42.8 °F 38.0 °F 32.0 °F 66% 29.77 in 10.0 mi WNW 8.1 mph 20.7 mph N/A   Scattered Clouds
11:35 AM 44.6 °F 38.4 °F 32.0 °F 61% 29.77 in 10.0 mi NW 12.7 mph 21.9 mph N/A   Mostly Cloudy
11:55 AM 42.8 °F 35.4 °F 32.0 °F 66% 29.77 in 10.0 mi WNW 15.0 mph 25.3 mph N/A   Mostly Cloudy
12:15 PM 44.6 °F 37.8 °F 32.0 °F 61% 29.77 in 10.0 mi WNW 15.0 mph 23.0 mph N/A   Scattered Clouds
12:35 PM 44.6 °F 38.8 °F 32.0 °F 61% 29.77 in 10.0 mi WNW 11.5 mph 29.9 mph N/A   Mostly Cloudy
12:55 PM 42.8 °F 35.8 °F 32.0 °F 66% 29.78 in 10.0 mi West 13.8 mph 21.9 mph N/A   Overcast
1:15 PM 42.8 °F 38.6 °F 32.0 °F 66% 29.78 in 10.0 mi WNW 6.9 mph 19.6 mph N/A   Overcast
1:35 PM 42.8 °F 37.5 °F 32.0 °F 66% 29.78 in 10.0 mi WNW 9.2 mph 20.7 mph N/A   Overcast
1:55 PM 42.8 °F 37.0 °F 30.2 °F 61% 29.78 in 10.0 mi West 10.4 mph 18.4 mph N/A   Overcast
2:15 PM 42.8 °F 38.6 °F 32.0 °F 66% 29.78 in 10.0 mi WNW 6.9 mph 17.3 mph N/A   Overcast
2:35 PM 44.6 °F 38.4 °F 32.0 °F 61% 29.79 in 10.0 mi WNW 12.7 mph 18.4 mph N/A   Overcast
2:55 PM 42.8 °F 38.0 °F 30.2 °F 61% 29.80 in 10.0 mi West 8.1 mph - N/A   Mostly Cloudy
3:15 PM 42.8 °F 38.6 °F 30.2 °F 61% 29.80 in 10.0 mi WNW 6.9 mph 16.1 mph N/A   Overcast
3:35 PM 42.8 °F 38.0 °F 30.2 °F 61% 29.81 in 10.0 mi West 8.1 mph - N/A   Overcast
3:55 PM 42.8 °F 39.3 °F 30.2 °F 61% 29.82 in 10.0 mi West 5.8 mph 18.4 mph N/A   Overcast
4:15 PM 42.8 °F 38.6 °F 30.2 °F 61% 29.82 in 10.0 mi West 6.9 mph - N/A   Overcast
4:35 PM 42.8 °F 37.5 °F 30.2 °F 61% 29.83 in 10.0 mi West 9.2 mph - N/A   Overcast
4:55 PM 41.0 °F 37.1 °F 30.2 °F 65% 29.83 in 10.0 mi West 5.8 mph - N/A   Overcast
5:15 PM 41.0 °F 37.1 °F 30.2 °F 65% 29.83 in 10.0 mi West 5.8 mph - N/A   Overcast
5:35 PM 41.0 °F 36.4 °F 30.2 °F 65% 29.83 in 10.0 mi West 6.9 mph - N/A   Overcast
5:55 PM 39.2 °F 34.2 °F 30.2 °F 70% 29.84 in 10.0 mi West 6.9 mph - N/A   Mostly Cloudy
6:15 PM 39.2 °F 35.9 °F 30.2 °F 70% 29.85 in 10.0 mi West 4.6 mph - N/A   Partly Cloudy
6:35 PM 39.2 °F 37.0 °F 30.2 °F 70% 29.85 in 10.0 mi WNW 3.5 mph - N/A   Clear
6:55 PM 37.4 °F 33.8 °F 30.2 °F 75% 29.86 in 10.0 mi West 4.6 mph - N/A   Mostly Cloudy
7:15 PM 39.2 °F 37.0 °F 30.2 °F 70% 29.87 in 10.0 mi West 3.5 mph - N/A   Overcast
7:35 PM 39.2 °F 35.9 °F 30.2 °F 70% 29.87 in 10.0 mi West 4.6 mph - N/A   Overcast
7:55 PM 39.2 °F 35.0 °F 30.2 °F 70% 29.87 in 10.0 mi West 5.8 mph - N/A   Overcast
8:15 PM 39.2 °F 33.6 °F 30.2 °F 70% 29.86 in 10.0 mi West 8.1 mph - N/A   Overcast
8:35 PM 39.2 °F 34.2 °F 30.2 °F 70% 29.86 in 10.0 mi West 6.9 mph - N/A   Overcast
8:55 PM 39.2 °F 33.6 °F 30.2 °F 70% 29.86 in 10.0 mi West 8.1 mph - N/A   Overcast
9:15 PM 37.4 °F 32.8 °F 30.2 °F 75% 29.85 in 10.0 mi WNW 5.8 mph - N/A   Mostly Cloudy
9:35 PM 37.4 °F 32.8 °F 30.2 °F 75% 29.86 in 10.0 mi West 5.8 mph - N/A   Partly Cloudy
9:55 PM 37.4 °F 34.9 °F 30.2 °F 75% 29.86 in 10.0 mi West 3.5 mph - N/A   Partly Cloudy
10:15 PM 35.6 °F - 30.2 °F 81% 29.87 in 10.0 mi Calm Calm - N/A   Scattered Clouds
10:35 PM 35.6 °F - 30.2 °F 81% 29.87 in 10.0 mi Calm Calm - N/A   Scattered Clouds
10:55 PM 35.6 °F 32.8 °F 30.2 °F 81% 29.87 in 10.0 mi WSW 3.5 mph - N/A   Partly Cloudy
11:15 PM 33.8 °F 29.6 °F 30.2 °F 87% 29.87 in 10.0 mi WSW 4.6 mph - N/A   Scattered Clouds
11:35 PM 35.6 °F - 30.2 °F 81% 29.88 in 10.0 mi Calm Calm - N/A   Mostly Cloudy
11:55 PM 35.6 °F - 30.2 °F 81% 29.88 in 10.0 mi Calm Calm - N/A   Overcast